sensor_id;sensor_type;location;lat;lon;timestamp;P1;durP1;ratioP1;P2;durP2;ratioP2
9940;SDS011;5009;50.656;7.188;2022-08-04T00:00:27;4.00;;;3.70;;
9940;SDS011;5009;50.656;7.188;2022-08-04T00:03:01;6.53;;;3.85;;
9940;SDS011;5009;50.656;7.188;2022-08-04T00:11:10;4.18;;;3.08;;
9940;SDS011;5009;50.656;7.188;2022-08-04T00:13:39;3.78;;;3.47;;
9940;SDS011;5009;50.656;7.188;2022-08-04T00:16:09;4.90;;;3.90;;
9940;SDS011;5009;50.656;7.188;2022-08-04T00:18:41;3.83;;;3.47;;
9940;SDS011;5009;50.656;7.188;2022-08-04T00:21:19;4.55;;;3.28;;
9940;SDS011;5009;50.656;7.188;2022-08-04T00:23:47;6.70;;;3.92;;
9940;SDS011;5009;50.656;7.188;2022-08-04T00:26:15;4.32;;;3.92;;
9940;SDS011;5009;50.656;7.188;2022-08-04T00:28:42;4.60;;;3.70;;
9940;SDS011;5009;50.656;7.188;2022-08-04T00:31:10;4.45;;;3.67;;
9940;SDS011;5009;50.656;7.188;2022-08-04T00:33:36;3.65;;;3.30;;
9940;SDS011;5009;50.656;7.188;2022-08-04T00:36:02;5.68;;;3.67;;
9940;SDS011;5009;50.656;7.188;2022-08-04T00:38:29;4.18;;;3.88;;
9940;SDS011;5009;50.656;7.188;2022-08-04T00:43:34;3.90;;;3.60;;
9940;SDS011;5009;50.656;7.188;2022-08-04T00:52:08;5.90;;;3.83;;
9940;SDS011;5009;50.656;7.188;2022-08-04T01:00:14;4.07;;;3.70;;
9940;SDS011;5009;50.656;7.188;2022-08-04T01:08:05;4.35;;;3.97;;
9940;SDS011;5009;50.656;7.188;2022-08-04T01:10:47;4.70;;;3.47;;
9940;SDS011;5009;50.656;7.188;2022-08-04T01:21:26;3.83;;;3.53;;
9940;SDS011;5009;50.656;7.188;2022-08-04T01:24:11;5.25;;;3.38;;
9940;SDS011;5009;50.656;7.188;2022-08-04T01:27:01;4.20;;;3.40;;
9940;SDS011;5009;50.656;7.188;2022-08-04T01:29:49;3.88;;;3.58;;
9940;SDS011;5009;50.656;7.188;2022-08-04T01:32:37;4.78;;;3.15;;
9940;SDS011;5009;50.656;7.188;2022-08-04T01:35:07;3.83;;;3.53;;
9940;SDS011;5009;50.656;7.188;2022-08-04T01:37:53;4.70;;;3.35;;
9940;SDS011;5009;50.656;7.188;2022-08-04T01:40:31;3.85;;;3.47;;
9940;SDS011;5009;50.656;7.188;2022-08-04T01:42:59;4.78;;;3.40;;
9940;SDS011;5009;50.656;7.188;2022-08-04T01:45:25;6.95;;;3.53;;
9940;SDS011;5009;50.656;7.188;2022-08-04T01:47:54;4.30;;;3.63;;
9940;SDS011;5009;50.656;7.188;2022-08-04T01:50:20;4.40;;;4.00;;
9940;SDS011;5009;50.656;7.188;2022-08-04T01:52:48;3.65;;;3.35;;
9940;SDS011;5009;50.656;7.188;2022-08-04T01:55:17;6.03;;;3.40;;
9940;SDS011;5009;50.656;7.188;2022-08-04T01:57:47;4.22;;;3.28;;
9940;SDS011;5009;50.656;7.188;2022-08-04T02:00:18;5.88;;;3.95;;
9940;SDS011;5009;50.656;7.188;2022-08-04T02:02:46;3.35;;;3.15;;
9940;SDS011;5009;50.656;7.188;2022-08-04T02:05:14;4.22;;;3.30;;
9940;SDS011;5009;50.656;7.188;2022-08-04T02:10:44;4.60;;;3.40;;
9940;SDS011;5009;50.656;7.188;2022-08-04T02:13:22;6.63;;;3.60;;
9940;SDS011;5009;50.656;7.188;2022-08-04T02:20:57;4.60;;;4.05;;
9940;SDS011;5009;50.656;7.188;2022-08-04T02:26:01;4.85;;;3.72;;
9940;SDS011;5009;50.656;7.188;2022-08-04T02:28:29;4.30;;;4.00;;
9940;SDS011;5009;50.656;7.188;2022-08-04T02:31:05;4.35;;;3.85;;
9940;SDS011;5009;50.656;7.188;2022-08-04T02:34:00;4.40;;;4.10;;
9940;SDS011;5009;50.656;7.188;2022-08-04T02:36:30;5.20;;;3.78;;
9940;SDS011;5009;50.656;7.188;2022-08-04T02:39:02;7.00;;;3.65;;
9940;SDS011;5009;50.656;7.188;2022-08-04T02:41:29;4.43;;;4.00;;
9940;SDS011;5009;50.656;7.188;2022-08-04T02:44:00;3.78;;;3.45;;
9940;SDS011;5009;50.656;7.188;2022-08-04T02:46:27;5.10;;;4.22;;
9940;SDS011;5009;50.656;7.188;2022-08-04T02:48:54;4.68;;;3.55;;
9940;SDS011;5009;50.656;7.188;2022-08-04T02:51:27;5.40;;;3.80;;
9940;SDS011;5009;50.656;7.188;2022-08-04T02:53:55;4.88;;;4.00;;
9940;SDS011;5009;50.656;7.188;2022-08-04T02:56:22;4.40;;;4.00;;
9940;SDS011;5009;50.656;7.188;2022-08-04T03:01:49;6.97;;;4.22;;
9940;SDS011;5009;50.656;7.188;2022-08-04T03:04:18;4.35;;;4.05;;
9940;SDS011;5009;50.656;7.188;2022-08-04T03:17:56;4.10;;;3.75;;
9940;SDS011;5009;50.656;7.188;2022-08-04T03:23:35;3.88;;;3.47;;
9940;SDS011;5009;50.656;7.188;2022-08-04T03:32:03;7.68;;;4.03;;
9940;SDS011;5009;50.656;7.188;2022-08-04T03:37:59;4.18;;;3.88;;
9940;SDS011;5009;50.656;7.188;2022-08-04T03:52:30;4.93;;;3.88;;
9940;SDS011;5009;50.656;7.188;2022-08-04T03:55:40;4.10;;;3.70;;
9940;SDS011;5009;50.656;7.188;2022-08-04T04:01:00;5.68;;;4.10;;
9940;SDS011;5009;50.656;7.188;2022-08-04T04:04:44;7.05;;;3.70;;
9940;SDS011;5009;50.656;7.188;2022-08-04T04:06:45;4.60;;;4.20;;
9940;SDS011;5009;50.656;7.188;2022-08-04T04:12:25;4.25;;;3.92;;
9940;SDS011;5009;50.656;7.188;2022-08-04T04:21:35;5.15;;;4.65;;
9940;SDS011;5009;50.656;7.188;2022-08-04T04:41:45;5.18;;;4.60;;
9940;SDS011;5009;50.656;7.188;2022-08-04T04:44:36;5.93;;;4.80;;
9940;SDS011;5009;50.656;7.188;2022-08-04T04:47:32;4.85;;;4.43;;
9940;SDS011;5009;50.656;7.188;2022-08-04T04:50:10;5.30;;;4.80;;
9940;SDS011;5009;50.656;7.188;2022-08-04T04:52:52;5.03;;;4.53;;
9940;SDS011;5009;50.656;7.188;2022-08-04T04:56:26;6.38;;;5.00;;
9940;SDS011;5009;50.656;7.188;2022-08-04T04:58:30;5.68;;;4.97;;
9940;SDS011;5009;50.656;7.188;2022-08-04T05:14:45;6.95;;;4.60;;
9940;SDS011;5009;50.656;7.188;2022-08-04T05:17:16;4.95;;;4.47;;
9940;SDS011;5009;50.656;7.188;2022-08-04T05:20:12;5.40;;;4.63;;
9940;SDS011;5009;50.656;7.188;2022-08-04T05:27:51;5.80;;;4.05;;
9940;SDS011;5009;50.656;7.188;2022-08-04T05:30:23;5.18;;;4.68;;
9940;SDS011;5009;50.656;7.188;2022-08-04T05:33:24;5.90;;;4.50;;
9940;SDS011;5009;50.656;7.188;2022-08-04T05:35:48;4.55;;;4.10;;
9940;SDS011;5009;50.656;7.188;2022-08-04T05:38:19;9.32;;;4.53;;
9940;SDS011;5009;50.656;7.188;2022-08-04T05:40:48;6.00;;;4.28;;
9940;SDS011;5009;50.656;7.188;2022-08-04T05:43:14;5.53;;;4.55;;
9940;SDS011;5009;50.656;7.188;2022-08-04T05:45:41;6.25;;;4.07;;
9940;SDS011;5009;50.656;7.188;2022-08-04T05:48:12;6.45;;;4.68;;
9940;SDS011;5009;50.656;7.188;2022-08-04T05:50:38;6.70;;;4.70;;
9940;SDS011;5009;50.656;7.188;2022-08-04T05:53:04;6.35;;;4.55;;
9940;SDS011;5009;50.656;7.188;2022-08-04T05:55:30;5.60;;;4.55;;
9940;SDS011;5009;50.656;7.188;2022-08-04T05:57:56;7.07;;;5.18;;
9940;SDS011;5009;50.656;7.188;2022-08-04T06:00:23;7.65;;;4.60;;
9940;SDS011;5009;50.656;7.188;2022-08-04T06:02:51;6.15;;;4.65;;
9940;SDS011;5009;50.656;7.188;2022-08-04T06:05:18;6.15;;;4.25;;
9940;SDS011;5009;50.656;7.188;2022-08-04T06:07:47;6.18;;;4.60;;
9940;SDS011;5009;50.656;7.188;2022-08-04T06:10:12;7.75;;;4.25;;
9940;SDS011;5009;50.656;7.188;2022-08-04T06:15:25;4.55;;;4.15;;
9940;SDS011;5009;50.656;7.188;2022-08-04T06:17:56;6.82;;;4.65;;
9940;SDS011;5009;50.656;7.188;2022-08-04T06:20:27;6.32;;;4.38;;
9940;SDS011;5009;50.656;7.188;2022-08-04T06:22:58;8.63;;;4.35;;
9940;SDS011;5009;50.656;7.188;2022-08-04T06:25:28;4.72;;;4.30;;
9940;SDS011;5009;50.656;7.188;2022-08-04T06:27:57;8.32;;;4.30;;
9940;SDS011;5009;50.656;7.188;2022-08-04T06:30:24;5.88;;;4.25;;
9940;SDS011;5009;50.656;7.188;2022-08-04T06:32:52;6.55;;;4.70;;
9940;SDS011;5009;50.656;7.188;2022-08-04T06:35:22;6.63;;;4.07;;
9940;SDS011;5009;50.656;7.188;2022-08-04T06:37:50;5.82;;;4.93;;
9940;SDS011;5009;50.656;7.188;2022-08-04T06:40:17;6.25;;;4.80;;
9940;SDS011;5009;50.656;7.188;2022-08-04T06:42:46;7.05;;;4.60;;
9940;SDS011;5009;50.656;7.188;2022-08-04T06:45:12;5.05;;;4.47;;
9940;SDS011;5009;50.656;7.188;2022-08-04T06:47:40;5.18;;;4.43;;
9940;SDS011;5009;50.656;7.188;2022-08-04T06:50:08;9.18;;;4.68;;
9940;SDS011;5009;50.656;7.188;2022-08-04T06:52:35;4.78;;;4.38;;
9940;SDS011;5009;50.656;7.188;2022-08-04T06:55:01;4.75;;;4.35;;
9940;SDS011;5009;50.656;7.188;2022-08-04T06:57:28;5.47;;;4.57;;
9940;SDS011;5009;50.656;7.188;2022-08-04T07:00:08;5.63;;;4.45;;
9940;SDS011;5009;50.656;7.188;2022-08-04T07:02:41;6.13;;;4.32;;
9940;SDS011;5009;50.656;7.188;2022-08-04T07:05:10;5.53;;;4.05;;
9940;SDS011;5009;50.656;7.188;2022-08-04T07:07:36;4.97;;;4.57;;
9940;SDS011;5009;50.656;7.188;2022-08-04T07:10:04;7.18;;;4.45;;
9940;SDS011;5009;50.656;7.188;2022-08-04T07:12:31;11.88;;;4.95;;
9940;SDS011;5009;50.656;7.188;2022-08-04T07:14:57;6.93;;;4.22;;
9940;SDS011;5009;50.656;7.188;2022-08-04T07:17:23;5.57;;;4.50;;
9940;SDS011;5009;50.656;7.188;2022-08-04T07:19:50;4.68;;;3.97;;
9940;SDS011;5009;50.656;7.188;2022-08-04T07:22:19;4.97;;;4.47;;
9940;SDS011;5009;50.656;7.188;2022-08-04T07:24:45;7.55;;;4.78;;
9940;SDS011;5009;50.656;7.188;2022-08-04T07:27:11;6.15;;;4.45;;
9940;SDS011;5009;50.656;7.188;2022-08-04T07:29:36;5.28;;;4.47;;
9940;SDS011;5009;50.656;7.188;2022-08-04T07:32:03;12.35;;;4.47;;
9940;SDS011;5009;50.656;7.188;2022-08-04T07:34:30;5.63;;;4.63;;
9940;SDS011;5009;50.656;7.188;2022-08-04T07:36:57;6.63;;;4.55;;
9940;SDS011;5009;50.656;7.188;2022-08-04T07:39:25;6.82;;;4.95;;
9940;SDS011;5009;50.656;7.188;2022-08-04T07:41:52;4.93;;;4.20;;
9940;SDS011;5009;50.656;7.188;2022-08-04T07:44:19;5.07;;;4.60;;
9940;SDS011;5009;50.656;7.188;2022-08-04T07:46:45;5.70;;;3.97;;
9940;SDS011;5009;50.656;7.188;2022-08-04T07:49:11;6.13;;;4.82;;
9940;SDS011;5009;50.656;7.188;2022-08-04T07:51:38;6.20;;;4.32;;
9940;SDS011;5009;50.656;7.188;2022-08-04T07:54:05;5.10;;;4.25;;
9940;SDS011;5009;50.656;7.188;2022-08-04T07:56:36;5.72;;;4.57;;
9940;SDS011;5009;50.656;7.188;2022-08-04T07:59:03;4.80;;;4.28;;
9940;SDS011;5009;50.656;7.188;2022-08-04T08:01:30;5.28;;;4.47;;
9940;SDS011;5009;50.656;7.188;2022-08-04T08:03:56;5.07;;;3.92;;
9940;SDS011;5009;50.656;7.188;2022-08-04T08:06:23;5.13;;;4.63;;
9940;SDS011;5009;50.656;7.188;2022-08-04T08:08:49;5.35;;;4.80;;
9940;SDS011;5009;50.656;7.188;2022-08-04T08:11:15;4.85;;;4.10;;
9940;SDS011;5009;50.656;7.188;2022-08-04T08:13:41;4.30;;;3.90;;
9940;SDS011;5009;50.656;7.188;2022-08-04T08:16:10;7.68;;;4.20;;
9940;SDS011;5009;50.656;7.188;2022-08-04T08:18:36;8.65;;;4.40;;
9940;SDS011;5009;50.656;7.188;2022-08-04T08:21:02;4.32;;;3.80;;
9940;SDS011;5009;50.656;7.188;2022-08-04T08:23:29;6.72;;;3.92;;
9940;SDS011;5009;50.656;7.188;2022-08-04T08:25:56;4.05;;;3.75;;
9940;SDS011;5009;50.656;7.188;2022-08-04T08:28:22;5.15;;;4.10;;
9940;SDS011;5009;50.656;7.188;2022-08-04T08:30:48;4.82;;;4.05;;
9940;SDS011;5009;50.656;7.188;2022-08-04T08:33:14;4.00;;;3.45;;
9940;SDS011;5009;50.656;7.188;2022-08-04T08:35:51;5.80;;;3.88;;
9940;SDS011;5009;50.656;7.188;2022-08-04T08:38:26;4.78;;;3.70;;
9940;SDS011;5009;50.656;7.188;2022-08-04T08:41:10;5.07;;;3.83;;
9940;SDS011;5009;50.656;7.188;2022-08-04T08:53:00;4.25;;;3.72;;
9940;SDS011;5009;50.656;7.188;2022-08-04T09:01:06;6.55;;;3.88;;
9940;SDS011;5009;50.656;7.188;2022-08-04T09:06:27;3.92;;;3.63;;
9940;SDS011;5009;50.656;7.188;2022-08-04T09:09:27;5.00;;;3.22;;
9940;SDS011;5009;50.656;7.188;2022-08-04T09:15:12;4.15;;;3.85;;
9940;SDS011;5009;50.656;7.188;2022-08-04T09:17:40;5.65;;;3.92;;
9940;SDS011;5009;50.656;7.188;2022-08-04T09:23:12;5.25;;;3.35;;
9940;SDS011;5009;50.656;7.188;2022-08-04T09:25:48;3.97;;;3.58;;
9940;SDS011;5009;50.656;7.188;2022-08-04T09:28:20;3.65;;;3.17;;
9940;SDS011;5009;50.656;7.188;2022-08-04T09:41:44;4.25;;;3.33;;
9940;SDS011;5009;50.656;7.188;2022-08-04T09:58:49;4.15;;;3.30;;
9940;SDS011;5009;50.656;7.188;2022-08-04T10:01:35;5.03;;;3.13;;
9940;SDS011;5009;50.656;7.188;2022-08-04T10:04:03;3.67;;;2.90;;
9940;SDS011;5009;50.656;7.188;2022-08-04T10:09:51;3.78;;;2.80;;
9940;SDS011;5009;50.656;7.188;2022-08-04T10:12:26;3.00;;;2.70;;
9940;SDS011;5009;50.656;7.188;2022-08-04T10:15:08;2.92;;;2.67;;
9940;SDS011;5009;50.656;7.188;2022-08-04T10:23:35;2.65;;;2.50;;
9940;SDS011;5009;50.656;7.188;2022-08-04T10:26:28;2.50;;;2.17;;
9940;SDS011;5009;50.656;7.188;2022-08-04T10:29:11;2.28;;;2.13;;
9940;SDS011;5009;50.656;7.188;2022-08-04T10:31:45;4.28;;;2.40;;
9940;SDS011;5009;50.656;7.188;2022-08-04T10:34:19;2.85;;;1.83;;
9940;SDS011;5009;50.656;7.188;2022-08-04T10:36:50;2.20;;;2.10;;
9940;SDS011;5009;50.656;7.188;2022-08-04T10:39:24;2.70;;;2.30;;
9940;SDS011;5009;50.656;7.188;2022-08-04T10:42:32;2.20;;;2.10;;
9940;SDS011;5009;50.656;7.188;2022-08-04T10:45:22;3.20;;;2.85;;
9940;SDS011;5009;50.656;7.188;2022-08-04T10:50:33;2.47;;;2.20;;
9940;SDS011;5009;50.656;7.188;2022-08-04T10:53:10;2.08;;;1.98;;
9940;SDS011;5009;50.656;7.188;2022-08-04T10:55:42;2.33;;;2.13;;
9940;SDS011;5009;50.656;7.188;2022-08-04T10:58:18;2.83;;;2.25;;
9940;SDS011;5009;50.656;7.188;2022-08-04T11:00:48;2.58;;;2.33;;
9940;SDS011;5009;50.656;7.188;2022-08-04T11:03:25;2.30;;;2.20;;
9940;SDS011;5009;50.656;7.188;2022-08-04T11:06:02;2.95;;;2.75;;
9940;SDS011;5009;50.656;7.188;2022-08-04T11:08:34;3.35;;;2.28;;
9940;SDS011;5009;50.656;7.188;2022-08-04T11:14:07;2.58;;;2.38;;
9940;SDS011;5009;50.656;7.188;2022-08-04T11:16:53;3.25;;;2.28;;
9940;SDS011;5009;50.656;7.188;2022-08-04T11:22:26;3.47;;;2.40;;
9940;SDS011;5009;50.656;7.188;2022-08-04T11:30:48;2.92;;;1.95;;
9940;SDS011;5009;50.656;7.188;2022-08-04T11:33:22;2.38;;;2.20;;
9940;SDS011;5009;50.656;7.188;2022-08-04T11:41:11;3.08;;;2.45;;
9940;SDS011;5009;50.656;7.188;2022-08-04T11:43:55;4.82;;;3.17;;
9940;SDS011;5009;50.656;7.188;2022-08-04T11:46:31;4.25;;;2.63;;
9940;SDS011;5009;50.656;7.188;2022-08-04T11:51:35;3.58;;;2.45;;
9940;SDS011;5009;50.656;7.188;2022-08-04T11:54:02;7.07;;;2.80;;
9940;SDS011;5009;50.656;7.188;2022-08-04T11:56:29;2.70;;;2.30;;
9940;SDS011;5009;50.656;7.188;2022-08-04T11:58:55;3.45;;;2.67;;
9940;SDS011;5009;50.656;7.188;2022-08-04T12:07:13;3.22;;;2.78;;
9940;SDS011;5009;50.656;7.188;2022-08-04T12:09:55;5.25;;;2.50;;
9940;SDS011;5009;50.656;7.188;2022-08-04T12:17:42;2.30;;;2.10;;
9940;SDS011;5009;50.656;7.188;2022-08-04T12:20:14;2.65;;;2.55;;
9940;SDS011;5009;50.656;7.188;2022-08-04T12:22:45;2.58;;;2.38;;
9940;SDS011;5009;50.656;7.188;2022-08-04T12:25:19;2.10;;;1.90;;
9940;SDS011;5009;50.656;7.188;2022-08-04T12:27:50;2.95;;;2.58;;
9940;SDS011;5009;50.656;7.188;2022-08-04T12:30:19;4.85;;;2.85;;
9940;SDS011;5009;50.656;7.188;2022-08-04T12:32:58;2.80;;;2.60;;
9940;SDS011;5009;50.656;7.188;2022-08-04T12:38:17;6.38;;;3.40;;
9940;SDS011;5009;50.656;7.188;2022-08-04T12:40:48;4.28;;;3.30;;
9940;SDS011;5009;50.656;7.188;2022-08-04T12:43:19;11.13;;;3.85;;
9940;SDS011;5009;50.656;7.188;2022-08-04T12:45:48;8.43;;;3.30;;
9940;SDS011;5009;50.656;7.188;2022-08-04T12:48:16;6.07;;;2.95;;
9940;SDS011;5009;50.656;7.188;2022-08-04T12:50:51;8.52;;;3.60;;
9940;SDS011;5009;50.656;7.188;2022-08-04T12:53:19;7.22;;;3.45;;
9940;SDS011;5009;50.656;7.188;2022-08-04T12:55:51;9.25;;;3.50;;
9940;SDS011;5009;50.656;7.188;2022-08-04T12:58:19;10.02;;;3.42;;
9940;SDS011;5009;50.656;7.188;2022-08-04T13:00:58;12.40;;;3.40;;
9940;SDS011;5009;50.656;7.188;2022-08-04T13:03:36;5.75;;;2.80;;
9940;SDS011;5009;50.656;7.188;2022-08-04T13:06:06;7.78;;;3.58;;
9940;SDS011;5009;50.656;7.188;2022-08-04T13:08:35;4.95;;;3.15;;
9940;SDS011;5009;50.656;7.188;2022-08-04T13:11:03;5.25;;;3.40;;
9940;SDS011;5009;50.656;7.188;2022-08-04T13:13:30;6.57;;;3.17;;
9940;SDS011;5009;50.656;7.188;2022-08-04T13:16:03;9.63;;;3.40;;
9940;SDS011;5009;50.656;7.188;2022-08-04T13:18:34;5.38;;;2.95;;
9940;SDS011;5009;50.656;7.188;2022-08-04T13:21:16;7.72;;;3.47;;
9940;SDS011;5009;50.656;7.188;2022-08-04T13:23:46;4.88;;;3.20;;
9940;SDS011;5009;50.656;7.188;2022-08-04T13:26:17;7.70;;;3.83;;
9940;SDS011;5009;50.656;7.188;2022-08-04T13:28:47;7.63;;;3.28;;
9940;SDS011;5009;50.656;7.188;2022-08-04T13:31:17;7.07;;;3.40;;
9940;SDS011;5009;50.656;7.188;2022-08-04T13:33:46;7.63;;;3.22;;
9940;SDS011;5009;50.656;7.188;2022-08-04T13:36:15;6.38;;;2.95;;
9940;SDS011;5009;50.656;7.188;2022-08-04T13:38:50;6.68;;;3.25;;
9940;SDS011;5009;50.656;7.188;2022-08-04T13:41:19;5.13;;;3.17;;
9940;SDS011;5009;50.656;7.188;2022-08-04T13:43:46;7.30;;;2.90;;
9940;SDS011;5009;50.656;7.188;2022-08-04T13:46:25;4.90;;;2.58;;
9940;SDS011;5009;50.656;7.188;2022-08-04T13:48:52;6.35;;;3.33;;
9940;SDS011;5009;50.656;7.188;2022-08-04T13:51:19;10.20;;;3.10;;
9940;SDS011;5009;50.656;7.188;2022-08-04T13:53:54;7.53;;;3.78;;
9940;SDS011;5009;50.656;7.188;2022-08-04T13:56:22;12.02;;;3.00;;
9940;SDS011;5009;50.656;7.188;2022-08-04T13:58:53;8.98;;;3.17;;
9940;SDS011;5009;50.656;7.188;2022-08-04T14:01:24;4.15;;;3.00;;
9940;SDS011;5009;50.656;7.188;2022-08-04T14:11:43;4.32;;;3.35;;
9940;SDS011;5009;50.656;7.188;2022-08-04T14:14:18;8.82;;;3.33;;
9940;SDS011;5009;50.656;7.188;2022-08-04T14:17:09;8.48;;;2.85;;
9940;SDS011;5009;50.656;7.188;2022-08-04T14:27:50;3.90;;;3.10;;
9940;SDS011;5009;50.656;7.188;2022-08-04T14:30:26;6.53;;;3.45;;
9940;SDS011;5009;50.656;7.188;2022-08-04T14:35:24;6.53;;;3.10;;
9940;SDS011;5009;50.656;7.188;2022-08-04T14:37:54;10.05;;;3.60;;
9940;SDS011;5009;50.656;7.188;2022-08-04T14:40:29;5.20;;;3.35;;
9940;SDS011;5009;50.656;7.188;2022-08-04T14:45:34;8.85;;;3.47;;
9940;SDS011;5009;50.656;7.188;2022-08-04T14:48:02;6.47;;;3.55;;
9940;SDS011;5009;50.656;7.188;2022-08-04T14:53:09;4.70;;;3.30;;
9940;SDS011;5009;50.656;7.188;2022-08-04T14:55:44;3.47;;;2.72;;
9940;SDS011;5009;50.656;7.188;2022-08-04T14:58:25;10.00;;;3.35;;
9940;SDS011;5009;50.656;7.188;2022-08-04T15:01:00;11.55;;;3.65;;
9940;SDS011;5009;50.656;7.188;2022-08-04T15:03:27;5.80;;;3.30;;
9940;SDS011;5009;50.656;7.188;2022-08-04T15:05:56;6.95;;;3.55;;
9940;SDS011;5009;50.656;7.188;2022-08-04T15:08:23;7.60;;;4.00;;
9940;SDS011;5009;50.656;7.188;2022-08-04T15:10:48;4.85;;;3.15;;
9940;SDS011;5009;50.656;7.188;2022-08-04T15:13:14;8.40;;;3.38;;
9940;SDS011;5009;50.656;7.188;2022-08-04T15:15:41;5.43;;;3.17;;
9940;SDS011;5009;50.656;7.188;2022-08-04T15:18:08;12.68;;;3.80;;
9940;SDS011;5009;50.656;7.188;2022-08-04T15:20:34;7.25;;;3.45;;
9940;SDS011;5009;50.656;7.188;2022-08-04T15:23:02;8.55;;;3.42;;
9940;SDS011;5009;50.656;7.188;2022-08-04T15:25:35;4.30;;;3.70;;
9940;SDS011;5009;50.656;7.188;2022-08-04T15:28:03;4.30;;;3.50;;
9940;SDS011;5009;50.656;7.188;2022-08-04T15:30:31;4.65;;;3.40;;
9940;SDS011;5009;50.656;7.188;2022-08-04T15:32:59;4.55;;;3.28;;
9940;SDS011;5009;50.656;7.188;2022-08-04T15:35:27;9.32;;;3.78;;
9940;SDS011;5009;50.656;7.188;2022-08-04T15:40:54;4.45;;;3.42;;
9940;SDS011;5009;50.656;7.188;2022-08-04T15:43:36;8.27;;;3.75;;
9940;SDS011;5009;50.656;7.188;2022-08-04T15:46:13;9.75;;;4.47;;
9940;SDS011;5009;50.656;7.188;2022-08-04T15:48:39;6.38;;;3.63;;
9940;SDS011;5009;50.656;7.188;2022-08-04T15:51:09;8.15;;;3.90;;
9940;SDS011;5009;50.656;7.188;2022-08-04T15:58:50;7.65;;;4.68;;
9940;SDS011;5009;50.656;7.188;2022-08-04T16:01:17;8.90;;;4.85;;
9940;SDS011;5009;50.656;7.188;2022-08-04T16:03:50;9.57;;;4.70;;
9940;SDS011;5009;50.656;7.188;2022-08-04T16:21:33;8.07;;;4.07;;
9940;SDS011;5009;50.656;7.188;2022-08-04T16:33:29;8.65;;;4.05;;
9940;SDS011;5009;50.656;7.188;2022-08-04T16:35:55;6.63;;;3.30;;
9940;SDS011;5009;50.656;7.188;2022-08-04T16:38:22;8.50;;;4.05;;
9940;SDS011;5009;50.656;7.188;2022-08-04T16:43:27;8.10;;;3.83;;
9940;SDS011;5009;50.656;7.188;2022-08-04T16:45:55;9.18;;;3.70;;
9940;SDS011;5009;50.656;7.188;2022-08-04T16:48:26;8.77;;;3.95;;
9940;SDS011;5009;50.656;7.188;2022-08-04T16:50:54;10.45;;;4.13;;
9940;SDS011;5009;50.656;7.188;2022-08-04T16:53:22;6.68;;;4.13;;
9940;SDS011;5009;50.656;7.188;2022-08-04T16:55:52;8.15;;;4.78;;
9940;SDS011;5009;50.656;7.188;2022-08-04T16:58:29;6.05;;;4.30;;
9940;SDS011;5009;50.656;7.188;2022-08-04T17:01:09;4.18;;;3.55;;
9940;SDS011;5009;50.656;7.188;2022-08-04T17:03:36;6.57;;;3.75;;
9940;SDS011;5009;50.656;7.188;2022-08-04T17:06:09;6.35;;;4.10;;
9940;SDS011;5009;50.656;7.188;2022-08-04T17:08:38;7.03;;;3.83;;
9940;SDS011;5009;50.656;7.188;2022-08-04T17:11:04;6.78;;;3.70;;
9940;SDS011;5009;50.656;7.188;2022-08-04T17:13:34;5.88;;;3.88;;
9940;SDS011;5009;50.656;7.188;2022-08-04T17:16:08;5.47;;;3.67;;
9940;SDS011;5009;50.656;7.188;2022-08-04T17:18:39;3.83;;;3.50;;
9940;SDS011;5009;50.656;7.188;2022-08-04T17:21:08;6.20;;;3.67;;
9940;SDS011;5009;50.656;7.188;2022-08-04T17:23:39;4.93;;;3.47;;
9940;SDS011;5009;50.656;7.188;2022-08-04T17:28:39;6.00;;;3.50;;
9940;SDS011;5009;50.656;7.188;2022-08-04T17:31:07;5.80;;;3.65;;
9940;SDS011;5009;50.656;7.188;2022-08-04T17:33:34;7.93;;;3.88;;
9940;SDS011;5009;50.656;7.188;2022-08-04T17:36:02;5.30;;;3.67;;
9940;SDS011;5009;50.656;7.188;2022-08-04T17:38:51;5.63;;;3.90;;
9940;SDS011;5009;50.656;7.188;2022-08-04T17:41:23;7.80;;;3.92;;
9940;SDS011;5009;50.656;7.188;2022-08-04T17:43:57;5.43;;;3.17;;
9940;SDS011;5009;50.656;7.188;2022-08-04T17:46:27;5.80;;;3.97;;
9940;SDS011;5009;50.656;7.188;2022-08-04T17:49:08;4.55;;;3.67;;
9940;SDS011;5009;50.656;7.188;2022-08-04T17:54:17;7.50;;;3.63;;
9940;SDS011;5009;50.656;7.188;2022-08-04T17:56:53;5.55;;;3.30;;
9940;SDS011;5009;50.656;7.188;2022-08-04T17:59:28;6.32;;;3.53;;
9940;SDS011;5009;50.656;7.188;2022-08-04T18:02:03;4.75;;;3.45;;
9940;SDS011;5009;50.656;7.188;2022-08-04T18:07:12;6.13;;;3.78;;
9940;SDS011;5009;50.656;7.188;2022-08-04T18:09:49;4.30;;;3.38;;
9940;SDS011;5009;50.656;7.188;2022-08-04T18:14:59;5.15;;;3.72;;
9940;SDS011;5009;50.656;7.188;2022-08-04T18:17:32;5.18;;;3.58;;
9940;SDS011;5009;50.656;7.188;2022-08-04T18:20:05;3.42;;;3.13;;
9940;SDS011;5009;50.656;7.188;2022-08-04T18:22:33;5.78;;;3.60;;
9940;SDS011;5009;50.656;7.188;2022-08-04T18:24:59;5.00;;;4.13;;
9940;SDS011;5009;50.656;7.188;2022-08-04T18:27:26;6.75;;;3.75;;
9940;SDS011;5009;50.656;7.188;2022-08-04T18:29:55;5.35;;;3.47;;
9940;SDS011;5009;50.656;7.188;2022-08-04T18:32:21;5.63;;;3.45;;
9940;SDS011;5009;50.656;7.188;2022-08-04T18:34:48;5.55;;;4.00;;
9940;SDS011;5009;50.656;7.188;2022-08-04T18:37:17;5.43;;;3.65;;
9940;SDS011;5009;50.656;7.188;2022-08-04T18:39:43;6.20;;;3.72;;
9940;SDS011;5009;50.656;7.188;2022-08-04T18:42:09;5.63;;;3.55;;
9940;SDS011;5009;50.656;7.188;2022-08-04T18:44:35;4.13;;;3.72;;
9940;SDS011;5009;50.656;7.188;2022-08-04T18:47:02;6.63;;;3.70;;
9940;SDS011;5009;50.656;7.188;2022-08-04T18:49:28;6.03;;;3.35;;
9940;SDS011;5009;50.656;7.188;2022-08-04T18:51:54;8.10;;;3.75;;
9940;SDS011;5009;50.656;7.188;2022-08-04T18:54:20;5.22;;;3.50;;
9940;SDS011;5009;50.656;7.188;2022-08-04T18:56:49;7.00;;;3.72;;
9940;SDS011;5009;50.656;7.188;2022-08-04T18:59:16;7.00;;;3.50;;
9940;SDS011;5009;50.656;7.188;2022-08-04T19:01:43;6.25;;;3.50;;
9940;SDS011;5009;50.656;7.188;2022-08-04T19:04:09;6.97;;;3.65;;
9940;SDS011;5009;50.656;7.188;2022-08-04T19:06:35;7.05;;;3.65;;
9940;SDS011;5009;50.656;7.188;2022-08-04T19:09:01;6.15;;;3.67;;
9940;SDS011;5009;50.656;7.188;2022-08-04T19:11:28;4.32;;;3.50;;
9940;SDS011;5009;50.656;7.188;2022-08-04T19:13:54;4.78;;;3.78;;
9940;SDS011;5009;50.656;7.188;2022-08-04T19:16:19;5.47;;;3.45;;
9940;SDS011;5009;50.656;7.188;2022-08-04T19:18:45;5.65;;;3.65;;
9940;SDS011;5009;50.656;7.188;2022-08-04T19:21:11;4.30;;;3.90;;
9940;SDS011;5009;50.656;7.188;2022-08-04T19:23:36;5.32;;;3.85;;
9940;SDS011;5009;50.656;7.188;2022-08-04T19:26:02;3.72;;;3.40;;
9940;SDS011;5009;50.656;7.188;2022-08-04T19:28:28;6.82;;;3.72;;
9940;SDS011;5009;50.656;7.188;2022-08-04T19:30:54;5.93;;;4.45;;
9940;SDS011;5009;50.656;7.188;2022-08-04T19:33:20;5.82;;;3.85;;
9940;SDS011;5009;50.656;7.188;2022-08-04T19:35:46;5.32;;;4.40;;
9940;SDS011;5009;50.656;7.188;2022-08-04T19:38:12;5.13;;;3.97;;
9940;SDS011;5009;50.656;7.188;2022-08-04T19:40:38;5.05;;;4.32;;
9940;SDS011;5009;50.656;7.188;2022-08-04T19:43:04;5.78;;;4.20;;
9940;SDS011;5009;50.656;7.188;2022-08-04T19:45:31;5.13;;;4.07;;
9940;SDS011;5009;50.656;7.188;2022-08-04T19:47:56;5.75;;;3.95;;
9940;SDS011;5009;50.656;7.188;2022-08-04T19:50:22;5.90;;;4.53;;
9940;SDS011;5009;50.656;7.188;2022-08-04T19:52:48;7.38;;;4.60;;
9940;SDS011;5009;50.656;7.188;2022-08-04T19:55:13;5.43;;;4.30;;
9940;SDS011;5009;50.656;7.188;2022-08-04T19:57:39;6.28;;;5.03;;
9940;SDS011;5009;50.656;7.188;2022-08-04T20:00:08;6.30;;;4.40;;
9940;SDS011;5009;50.656;7.188;2022-08-04T20:02:36;6.25;;;4.60;;
9940;SDS011;5009;50.656;7.188;2022-08-04T20:05:02;6.28;;;4.93;;
9940;SDS011;5009;50.656;7.188;2022-08-04T20:07:27;5.57;;;4.32;;
9940;SDS011;5009;50.656;7.188;2022-08-04T20:09:54;6.00;;;4.18;;
9940;SDS011;5009;50.656;7.188;2022-08-04T20:12:19;6.95;;;4.50;;
9940;SDS011;5009;50.656;7.188;2022-08-04T20:14:45;7.45;;;4.65;;
9940;SDS011;5009;50.656;7.188;2022-08-04T20:17:11;5.13;;;4.63;;
9940;SDS011;5009;50.656;7.188;2022-08-04T20:19:37;5.45;;;4.68;;
9940;SDS011;5009;50.656;7.188;2022-08-04T20:22:03;8.10;;;5.25;;
9940;SDS011;5009;50.656;7.188;2022-08-04T20:24:29;8.05;;;5.18;;
9940;SDS011;5009;50.656;7.188;2022-08-04T20:26:54;5.47;;;4.75;;
9940;SDS011;5009;50.656;7.188;2022-08-04T20:29:20;6.00;;;4.50;;
9940;SDS011;5009;50.656;7.188;2022-08-04T20:31:45;6.93;;;5.00;;
9940;SDS011;5009;50.656;7.188;2022-08-04T20:34:11;9.38;;;5.28;;
9940;SDS011;5009;50.656;7.188;2022-08-04T20:36:37;9.75;;;4.80;;